Time;durP1;ratioP1;P1;durP2;ratioP2;P2;SDS_P1;SDS_P2;PMS_P1;PMS_P2;Temp;Humidity;BMP_temperature;BMP_pressure;BME280_temperature;BME280_humidity;BME280_pressure;Samples;Min_cycle;Max_cycle;Signal;HPM_P1;HPM_P2
2023/12/29 00:11:00;;;;;;;4.67;2.33;;;;;;;8.29;100.00;100691.16;31538419;28;20484;-85
2023/12/29 00:26:02;;;;;;;5.63;2.10;;;;;;;8.35;100.00;100662.59;31522958;28;20040;-86
2023/12/29 00:41:04;;;;;;;2.50;1.73;;;;;;;8.63;100.00;100620.41;31519374;28;20052;-85
2023/12/29 00:56:11;;;;;;;4.37;1.93;;;;;;;8.51;100.00;100592.59;31508504;28;20493;-82
2023/12/29 01:11:13;;;;;;;4.67;2.07;;;;;;;8.50;100.00;100571.34;31487477;28;20056;-82
2023/12/29 01:26:15;;;;;;;6.03;2.20;;;;;;;8.48;100.00;100533.09;31500202;28;20044;-83
2023/12/29 01:41:21;;;;;;;3.20;1.97;;;;;;;8.33;100.00;100539.72;31527102;28;20086;-82
2023/12/29 01:56:24;;;;;;;5.80;2.17;;;;;;;8.34;100.00;100522.31;31472346;28;20064;-83
2023/12/29 02:11:26;;;;;;;6.67;2.73;;;;;;;8.35;100.00;100496.81;31507443;28;20056;-90
2023/12/29 02:26:34;;;;;;;5.60;2.30;;;;;;;8.65;100.00;100493.56;31513683;28;20055;-83
2023/12/29 02:41:39;;;;;;;6.00;3.00;;;;;;;8.70;100.00;100501.28;31522027;28;20059;-83
2023/12/29 02:56:41;;;;;;;5.47;3.13;;;;;;;8.74;100.00;100469.56;31604221;28;20052;-84
2023/12/29 03:11:43;;;;;;;8.83;2.90;;;;;;;8.86;100.00;100450.13;31504306;28;20056;-82
2023/12/29 03:26:45;;;;;;;5.90;2.90;;;;;;;9.10;100.00;100454.59;31538466;28;20047;-82
2023/12/29 03:41:47;;;;;;;6.43;3.37;;;;;;;9.18;100.00;100434.41;31590745;28;20082;-84
2023/12/29 03:56:49;;;;;;;5.87;2.93;;;;;;;9.24;100.00;100421.94;31584967;28;20067;-84
2023/12/29 04:11:51;;;;;;;5.90;3.10;;;;;;;9.28;100.00;100410.31;31505836;28;20152;-83
2023/12/29 04:26:53;;;;;;;8.17;4.00;;;;;;;9.32;100.00;100373.13;31502008;28;20072;-83
2023/12/29 04:41:55;;;;;;;13.90;4.37;;;;;;;9.27;100.00;100393.28;31516599;28;20502;-82
2023/12/29 04:56:57;;;;;;;11.07;4.50;;;;;;;9.44;100.00;100391.59;31533319;28;20052;-88
2023/12/29 05:11:59;;;;;;;12.97;5.40;;;;;;;9.09;100.00;100388.03;31491214;28;20416;-85
2023/12/29 05:27:02;;;;;;;11.27;5.67;;;;;;;8.82;100.00;100379.00;31527512;28;20052;-85
2023/12/29 05:42:04;;;;;;;10.07;5.43;;;;;;;9.21;100.00;100381.38;31468496;28;20060;-85
2023/12/29 05:57:07;;;;;;;19.50;6.40;;;;;;;9.25;100.00;100406.47;31494498;28;20500;-85
2023/12/29 06:12:09;;;;;;;12.70;6.20;;;;;;;9.88;100.00;100421.31;31509592;28;20056;-85
2023/12/29 06:27:12;;;;;;;12.07;6.17;;;;;;;10.17;100.00;100424.41;31522514;28;20052;-86
2023/12/29 06:42:14;;;;;;;14.20;6.97;;;;;;;10.28;100.00;100410.75;31529032;28;20060;-89
2023/12/29 06:57:19;;;;;;;11.80;6.07;;;;;;;10.50;100.00;100408.50;31486149;28;20112;-91
2023/12/29 07:12:28;;;;;;;18.50;7.53;;;;;;;10.61;100.00;100373.06;31436228;28;20059;-89
2023/12/29 07:27:31;;;;;;;18.53;8.00;;;;;;;10.86;100.00;100400.59;31555213;28;20076;-92
2023/12/29 07:42:33;;;;;;;17.03;7.97;;;;;;;10.91;100.00;100428.03;31568576;28;20063;-87
2023/12/29 07:57:37;;;;;;;16.43;8.33;;;;;;;10.72;100.00;100438.81;31561015;28;20048;-89
2023/12/29 08:12:45;;;;;;;16.23;7.83;;;;;;;10.80;100.00;100429.38;31558338;28;20055;-89
2023/12/29 08:27:47;;;;;;;20.47;8.40;;;;;;;10.96;100.00;100434.94;31531814;28;20028;-85
2023/12/29 08:42:50;;;;;;;19.00;8.53;;;;;;;11.14;100.00;100410.19;31511203;28;20052;-77
2023/12/29 08:57:52;;;;;;;24.57;9.13;;;;;;;10.86;100.00;100376.91;31469912;28;20040;-86
2023/12/29 09:12:54;;;;;;;17.83;8.63;;;;;;;11.02;100.00;100386.34;31497103;28;20092;-81
2023/12/29 09:27:57;;;;;;;19.20;9.57;;;;;;;10.94;100.00;100377.56;31491106;28;20051;-88
2023/12/29 09:43:02;;;;;;;22.43;8.93;;;;;;;11.04;100.00;100363.03;31474556;28;20052;-78
2023/12/29 09:58:15;;;;;;;15.47;8.50;;;;;;;11.29;100.00;100357.16;31492381;28;20052;-85
2023/12/29 10:13:19;;;;;;;20.77;8.50;;;;;;;11.17;100.00;100327.84;31613109;28;20068;-86
2023/12/29 10:28:23;;;;;;;16.97;8.60;;;;;;;11.16;100.00;100332.53;31529709;28;20132;-84
2023/12/29 10:43:41;;;;;;;14.63;7.77;;;;;;;11.18;100.00;100302.22;31493098;28;20115;-87
2023/12/29 10:58:43;;;;;;;15.87;7.83;;;;;;;11.42;100.00;100297.50;31510809;28;20071;-75
2023/12/29 11:13:46;;;;;;;19.03;7.83;;;;;;;11.79;100.00;100313.47;31571845;28;20056;-88
2023/12/29 11:28:49;;;;;;;14.57;7.87;;;;;;;11.95;100.00;100305.34;31525399;28;20056;-87
2023/12/29 11:43:59;;;;;;;17.07;8.63;;;;;;;12.06;100.00;100315.97;31517245;28;20052;-89
2023/12/29 11:59:16;;;;;;;18.70;7.90;;;;;;;12.06;100.00;100313.25;31521704;28;20057;-84
2023/12/29 12:14:50;;;;;;;17.13;7.33;;;;;;;12.13;100.00;100325.94;31468946;28;20064;-84
2023/12/29 12:29:58;;;;;;;19.50;7.97;;;;;;;12.16;100.00;100331.28;31507181;28;20388;-78
2023/12/29 12:45:10;;;;;;;20.47;9.23;;;;;;;11.98;100.00;100320.03;31527836;28;20051;-77
2023/12/29 13:00:15;;;;;;;31.97;12.10;;;;;;;12.01;100.00;100321.94;31583061;28;20056;-78
2023/12/29 13:15:18;;;;;;;24.10;10.37;;;;;;;11.91;100.00;100337.28;31482053;28;20053;-80
2023/12/29 13:30:21;;;;;;;21.90;10.50;;;;;;;11.80;100.00;100331.31;31506999;28;20052;-86
2023/12/29 13:45:25;;;;;;;23.87;10.80;;;;;;;11.87;100.00;100325.69;31560274;28;20522;-81
2023/12/29 14:00:37;;;;;;;34.43;12.47;;;;;;;11.67;100.00;100324.94;31485011;28;20052;-83
2023/12/29 14:15:42;;;;;;;22.83;11.37;;;;;;;11.61;100.00;100334.78;31471633;28;20060;-75
2023/12/29 14:30:45;;;;;;;31.43;13.07;;;;;;;11.43;100.00;100323.50;31498998;28;20106;-81
2023/12/29 14:45:48;;;;;;;25.37;11.20;;;;;;;11.16;100.00;100315.47;31482055;28;20057;-76
2023/12/29 15:00:50;;;;;;;33.23;13.27;;;;;;;11.04;100.00;100314.13;31579050;28;20059;-85
2023/12/29 15:15:52;;;;;;;26.43;11.70;;;;;;;10.87;100.00;100334.22;31521656;28;20109;-86
2023/12/29 15:30:54;;;;;;;21.77;11.50;;;;;;;10.81;100.00;100349.47;31505326;28;20060;-87
2023/12/29 15:45:57;;;;;;;29.47;14.97;;;;;;;10.66;100.00;100348.91;31501331;28;20048;-84
2023/12/29 16:00:59;;;;;;;28.90;12.13;;;;;;;10.30;100.00;100346.00;31492821;28;20074;-79
2023/12/29 16:16:03;;;;;;;28.70;13.40;;;;;;;10.23;100.00;100335.22;31494763;28;20397;-76
2023/12/29 16:31:10;;;;;;;36.23;16.77;;;;;;;10.18;100.00;100308.53;31508069;28;20128;-76
2023/12/29 16:46:12;;;;;;;35.93;13.33;;;;;;;10.07;100.00;100302.50;31544856;28;20052;-75
2023/12/29 17:01:14;;;;;;;32.27;14.37;;;;;;;9.79;100.00;100303.66;31535503;28;20097;-77
2023/12/29 17:16:17;;;;;;;27.87;14.80;;;;;;;9.56;100.00;100293.50;31562551;28;20079;-84
2023/12/29 17:31:20;;;;;;;23.67;12.27;;;;;;;9.57;100.00;100298.50;31400630;28;20055;-83
2023/12/29 17:46:29;;;;;;;26.17;12.03;;;;;;;9.62;100.00;100326.34;31479576;28;20044;-84
2023/12/29 18:01:31;;;;;;;28.07;11.67;;;;;;;9.55;100.00;100308.22;31490949;28;20056;-85
2023/12/29 18:16:34;;;;;;;26.33;12.37;;;;;;;9.53;100.00;100313.28;31532895;28;20076;-87
2023/12/29 18:31:42;;;;;;;35.80;14.93;;;;;;;9.49;100.00;100299.00;31525904;28;20384;-88
2023/12/29 18:46:44;;;;;;;28.63;14.00;;;;;;;8.83;100.00;100312.84;31471609;28;20041;-88
2023/12/29 19:01:47;;;;;;;33.17;13.57;;;;;;;9.03;100.00;100319.22;31498099;28;20048;-85
2023/12/29 19:16:50;;;;;;;34.97;10.47;;;;;;;7.30;100.00;100286.78;31523672;28;20052;-85
2023/12/29 19:32:24;;;;;;;22.30;9.80;;;;;;;7.33;100.00;100277.09;31470223;28;20048;-87
2023/12/29 19:47:42;;;;;;;26.93;9.53;;;;;;;7.26;100.00;100277.13;31406973;28;20055;-87
2023/12/29 20:02:45;;;;;;;17.63;9.13;;;;;;;7.09;100.00;100274.09;31522477;28;20056;-84
2023/12/29 20:17:47;;;;;;;20.50;8.67;;;;;;;6.92;100.00;100301.88;31621478;28;20110;-82
2023/12/29 20:32:50;;;;;;;22.10;9.00;;;;;;;7.09;100.00;100300.31;31601398;28;20158;-80
2023/12/29 20:47:53;;;;;;;20.73;9.23;;;;;;;7.35;100.00;100304.47;31454233;28;20407;-87
2023/12/29 21:02:55;;;;;;;19.37;8.47;;;;;;;7.04;100.00;100320.38;31484255;28;20514;-83
2023/12/29 21:17:58;;;;;;;21.87;9.57;;;;;;;6.92;100.00;100311.91;31521442;28;20416;-82
2023/12/29 21:33:01;;;;;;;19.97;8.60;;;;;;;7.56;100.00;100323.31;31441725;28;20125;-85
2023/12/29 21:48:05;;;;;;;16.70;7.13;;;;;;;7.81;100.00;100323.97;31504188;28;20139;-83
2023/12/29 22:03:08;;;;;;;16.40;8.10;;;;;;;8.12;100.00;100326.91;31475385;28;20468;-82
2023/12/29 22:18:10;;;;;;;22.60;8.07;;;;;;;6.90;100.00;100271.81;31463531;28;20489;-86
2023/12/29 22:33:13;;;;;;;30.80;9.33;;;;;;;6.54;100.00;100275.72;31611197;28;20096;-83
2023/12/29 22:48:16;;;;;;;16.90;8.70;;;;;;;6.72;100.00;100260.28;31387174;28;20085;-83
2023/12/29 23:03:19;;;;;;;18.57;9.87;;;;;;;6.89;100.00;100275.69;31524062;28;20563;-84
2023/12/29 23:18:21;;;;;;;16.87;8.23;;;;;;;6.98;100.00;100254.47;31575928;28;20062;-84
2023/12/29 23:33:23;;;;;;;16.00;8.53;;;;;;;6.59;100.00;100261.88;31514947;28;20049;-84
2023/12/29 23:48:25;;;;;;;15.77;8.27;;;;;;;6.50;100.00;100284.59;31446891;28;20413;-84
